Time;durP1;ratioP1;P1;durP2;ratioP2;P2;SDS_P1;SDS_P2;PMS_P1;PMS_P2;Temp;Humidity;BMP_temperature;BMP_pressure;BME280_temperature;BME280_humidity;BME280_pressure;Samples;Min_cycle;Max_cycle;Signal;HPM_P1;HPM_P2
2022/05/30 00:02:06;;;;;;;11.48;8.98;;;16.10;99.90;;;;;;5271496;28;20067;-80
2022/05/30 00:04:38;;;;;;;10.82;8.55;;;16.10;99.90;;;;;;5271494;28;20020;-80
2022/05/30 00:07:09;;;;;;;13.48;8.73;;;15.80;99.90;;;;;;5271708;28;20024;-79
2022/05/30 00:09:40;;;;;;;12.38;9.43;;;15.80;99.90;;;;;;5271467;28;20047;-80
2022/05/30 00:12:12;;;;;;;15.52;10.18;;;15.70;99.90;;;;;;5271384;28;20480;-80
2022/05/30 00:14:45;;;;;;;16.88;10.25;;;15.80;99.90;;;;;;5271340;28;20562;-80
2022/05/30 00:17:15;;;;;;;14.75;10.38;;;16.10;99.90;;;;;;5271072;28;20024;-80
2022/05/30 00:19:46;;;;;;;14.77;10.48;;;15.70;99.90;;;;;;5271354;28;20471;-80
2022/05/30 00:22:18;;;;;;;14.23;9.68;;;15.60;99.90;;;;;;5271107;28;20031;-80
2022/05/30 00:24:49;;;;;;;16.75;11.13;;;15.60;99.90;;;;;;5270893;28;20024;-80
2022/05/30 00:27:20;;;;;;;14.88;9.88;;;15.80;99.90;;;;;;5252964;28;20028;-79
2022/05/30 00:29:50;;;;;;;16.63;10.10;;;15.70;99.90;;;;;;5271037;28;20487;-80
2022/05/30 00:32:21;;;;;;;12.75;9.57;;;15.80;99.90;;;;;;5270989;28;20032;-79
2022/05/30 00:34:52;;;;;;;13.82;9.50;;;15.80;99.90;;;;;;5270914;28;20032;-80
2022/05/30 00:37:25;;;;;;;16.33;9.48;;;15.50;99.90;;;;;;5270696;28;20484;-80
2022/05/30 00:39:56;;;;;;;13.75;11.02;;;15.40;99.90;;;;;;5252751;28;20020;-80
2022/05/30 00:42:27;;;;;;;16.35;10.45;;;15.60;99.90;;;;;;5271053;28;20027;-80
2022/05/30 00:44:58;;;;;;;14.60;9.48;;;15.80;99.90;;;;;;5270728;28;20050;-80
2022/05/30 00:47:29;;;;;;;14.32;10.45;;;15.50;99.90;;;;;;5270737;28;20020;-80
2022/05/30 00:50:00;;;;;;;13.90;9.82;;;15.70;99.90;;;;;;5270600;28;20024;-80
2022/05/30 00:52:34;;;;;;;13.30;10.07;;;15.60;99.90;;;;;;5270355;28;20028;-79
2022/05/30 00:55:14;;;;;;;15.93;10.57;;;15.30;99.90;;;;;;5270552;28;20074;-78
2022/05/30 00:57:47;;;;;;;20.30;10.40;;;15.60;99.90;;;;;;5270458;28;20020;-80
2022/05/30 01:00:21;;;;;;;17.83;10.23;;;15.50;99.90;;;;;;5251972;28;20055;-80
2022/05/30 01:08:32;;;;;;;18.08;10.98;;;15.30;99.90;;;;;;5270511;28;20036;-80
2022/05/30 01:11:03;;;;;;;15.65;10.80;;;15.50;99.90;;;;;;5270241;28;20427;-79
2022/05/30 01:13:36;;;;;;;15.45;10.10;;;15.60;99.90;;;;;;5251910;28;20046;-79
2022/05/30 01:16:12;;;;;;;18.63;10.60;;;15.50;99.90;;;;;;5270237;28;20397;-79
2022/05/30 01:18:49;;;;;;;12.00;9.75;;;15.60;99.90;;;;;;5270471;28;20020;-79
2022/05/30 01:21:44;;;;;;;17.67;10.57;;;15.40;99.90;;;;;;5269917;28;20479;-79
2022/05/30 01:24:20;;;;;;;22.58;11.57;;;15.50;99.90;;;;;;5270035;28;20036;-80
2022/05/30 01:27:14;;;;;;;16.48;11.63;;;15.20;99.90;;;;;;5269837;28;20484;-80
2022/05/30 01:29:49;;;;;;;19.80;12.30;;;15.10;99.90;;;;;;5251348;28;20028;-79
2022/05/30 01:32:22;;;;;;;21.48;13.52;;;15.30;99.90;;;;;;5269676;28;20036;-80
2022/05/30 01:34:53;;;;;;;19.25;11.57;;;15.40;99.90;;;;;;5269709;28;20032;-80
2022/05/30 01:37:24;;;;;;;20.77;12.02;;;15.30;99.90;;;;;;5251606;28;20495;-79
2022/05/30 01:39:55;;;;;;;17.65;10.60;;;15.40;99.90;;;;;;5269845;28;20063;-80
2022/05/30 01:42:26;;;;;;;21.15;12.18;;;15.30;99.90;;;;;;5251523;28;20055;-79
2022/05/30 01:44:56;;;;;;;18.67;11.77;;;15.10;99.90;;;;;;5269529;28;20069;-79
2022/05/30 01:47:27;;;;;;;19.55;13.25;;;15.30;99.90;;;;;;5269596;28;20110;-80
2022/05/30 01:49:58;;;;;;;20.38;12.65;;;15.00;99.90;;;;;;5269632;28;20104;-79
2022/05/30 01:52:30;;;;;;;18.77;12.40;;;15.20;99.90;;;;;;5269437;28;20164;-79
2022/05/30 01:55:01;;;;;;;20.13;12.82;;;15.40;99.90;;;;;;5269484;28;20036;-79
2022/05/30 01:57:32;;;;;;;19.08;12.50;;;15.50;99.90;;;;;;5269635;28;20043;-79
2022/05/30 02:00:04;;;;;;;15.82;11.13;;;15.50;99.90;;;;;;5269118;28;20499;-79
2022/05/30 02:02:35;;;;;;;21.60;11.30;;;15.30;99.90;;;;;;5251202;28;20028;-80
2022/05/30 02:05:07;;;;;;;19.17;11.85;;;15.20;99.90;;;;;;5250963;28;20020;-79
2022/05/30 02:07:38;;;;;;;18.90;11.52;;;15.20;99.90;;;;;;5269279;28;20024;-79
2022/05/30 02:10:09;;;;;;;19.10;12.00;;;15.10;99.90;;;;;;5251510;28;20505;-79
2022/05/30 02:12:39;;;;;;;20.48;12.18;;;15.10;99.90;;;;;;5269202;28;20115;-79
2022/05/30 02:15:10;;;;;;;20.30;12.88;;;15.30;99.90;;;;;;5268790;28;20016;-80
2022/05/30 02:17:41;;;;;;;19.35;12.82;;;15.20;99.90;;;;;;5269171;28;20461;-79
2022/05/30 02:20:12;;;;;;;24.35;14.88;;;15.00;99.90;;;;;;5269130;28;20490;-79
2022/05/30 02:22:44;;;;;;;21.35;13.57;;;15.20;99.90;;;;;;5269094;28;20196;-79
2022/05/30 02:25:15;;;;;;;18.40;13.30;;;15.00;99.90;;;;;;5268659;28;20123;-80
2022/05/30 02:27:47;;;;;;;21.35;14.35;;;15.30;99.90;;;;;;5269138;28;20056;-79
2022/05/30 02:30:18;;;;;;;21.98;13.07;;;15.30;99.90;;;;;;5269070;28;20024;-79
2022/05/30 02:36:38;;;;;;;22.60;13.88;;;15.10;99.90;;;;;;5269106;28;20039;-79
2022/05/30 02:38:29;;;;;;;22.77;14.02;;;15.10;99.90;;;;;;5254260;28;20077;-79
2022/05/30 02:41:00;;;;;;;26.40;13.43;;;15.10;99.90;;;;;;5269249;28;20012;-79
2022/05/30 02:43:30;;;;;;;22.17;14.75;;;14.80;99.90;;;;;;5269055;28;20434;-79
2022/05/30 02:46:01;;;;;;;21.67;14.70;;;15.10;99.90;;;;;;5268846;28;20384;-78
2022/05/30 02:48:32;;;;;;;23.95;14.63;;;15.20;99.90;;;;;;5268717;28;20104;-79
2022/05/30 02:51:03;;;;;;;22.42;14.40;;;15.20;99.90;;;;;;5268867;28;20104;-79
2022/05/30 02:53:34;;;;;;;23.50;13.93;;;15.10;99.90;;;;;;5268770;28;20043;-80
2022/05/30 02:56:05;;;;;;;21.42;14.30;;;15.30;99.90;;;;;;5250828;28;20384;-79
2022/05/30 02:58:36;;;;;;;20.60;13.57;;;15.40;99.90;;;;;;5268750;28;20103;-79
2022/05/30 03:01:08;;;;;;;21.00;13.80;;;15.10;99.90;;;;;;5268518;28;20127;-78
2022/05/30 03:03:39;;;;;;;24.50;14.75;;;15.10;99.90;;;;;;5268611;28;20031;-79
2022/05/30 03:06:11;;;;;;;28.63;14.93;;;15.10;99.90;;;;;;5268249;28;20024;-79
2022/05/30 03:08:42;;;;;;;22.55;14.98;;;15.30;99.90;;;;;;5268275;28;20052;-79
2022/05/30 03:11:13;;;;;;;20.98;15.48;;;15.20;99.90;;;;;;5268259;28;20063;-79
2022/05/30 03:13:44;;;;;;;24.75;14.60;;;15.40;99.90;;;;;;5268009;28;20043;-79
2022/05/30 03:16:15;;;;;;;25.52;15.07;;;15.30;99.90;;;;;;5268052;28;20058;-79
2022/05/30 03:18:46;;;;;;;20.35;14.18;;;15.50;99.90;;;;;;5268008;28;20020;-79
2022/05/30 03:21:17;;;;;;;22.60;14.52;;;15.70;99.90;;;;;;5268086;28;20020;-79
2022/05/30 03:23:48;;;;;;;22.25;14.77;;;15.80;99.90;;;;;;5268223;28;20031;-79
2022/05/30 03:26:20;;;;;;;26.08;15.75;;;15.70;99.90;;;;;;5268019;28;20103;-79
2022/05/30 03:28:50;;;;;;;27.23;15.88;;;15.70;99.90;;;;;;5252979;28;20043;-79
2022/05/30 03:31:21;;;;;;;22.73;16.02;;;15.80;99.90;;;;;;5271623;28;20028;-79
2022/05/30 03:33:53;;;;;;;22.35;15.43;;;16.10;99.90;;;;;;5253511;28;20039;-79
2022/05/30 03:36:26;;;;;;;23.80;14.95;;;16.20;99.90;;;;;;5253445;28;20032;-79
2022/05/30 03:38:57;;;;;;;24.58;15.15;;;16.20;99.90;;;;;;5271706;28;20035;-79
2022/05/30 03:41:28;;;;;;;25.45;16.92;;;16.30;99.90;;;;;;5253456;28;20054;-79
2022/05/30 03:44:00;;;;;;;25.20;16.45;;;16.40;99.90;;;;;;5271108;28;20024;-79
2022/05/30 03:46:32;;;;;;;29.35;16.45;;;16.30;99.90;;;;;;5271491;28;20023;-79
2022/05/30 03:49:03;;;;;;;29.38;17.60;;;16.60;99.90;;;;;;5271015;28;20067;-79
2022/05/30 03:51:34;;;;;;;28.38;18.45;;;16.40;99.90;;;;;;5271054;28;20399;-79
2022/05/30 03:54:05;;;;;;;30.25;17.25;;;16.40;99.90;;;;;;5271302;28;20162;-78
2022/05/30 03:56:36;;;;;;;31.00;19.33;;;16.70;99.90;;;;;;5271364;28;20102;-79
2022/05/30 03:59:07;;;;;;;26.70;17.13;;;16.80;99.90;;;;;;5271143;28;20177;-80
2022/05/30 04:01:38;;;;;;;30.13;17.95;;;16.80;99.90;;;;;;5271051;28;20050;-79
2022/05/30 04:04:10;;;;;;;28.98;18.58;;;16.90;99.90;;;;;;5270977;28;20035;-79
2022/05/30 04:06:41;;;;;;;28.67;16.25;;;17.00;99.90;;;;;;5270967;28;20032;-80
2022/05/30 04:09:12;;;;;;;25.35;16.45;;;17.10;99.90;;;;;;5270943;28;20103;-80
2022/05/30 04:11:43;;;;;;;26.67;18.23;;;17.10;99.90;;;;;;5270767;28;20024;-80
2022/05/30 04:14:13;;;;;;;29.13;17.80;;;17.10;99.90;;;;;;5270960;28;20060;-79
2022/05/30 04:16:44;;;;;;;26.08;18.00;;;17.40;99.90;;;;;;5270884;28;20012;-79
2022/05/30 04:19:15;;;;;;;31.30;18.60;;;17.50;99.90;;;;;;5270617;28;20028;-80
2022/05/30 04:21:46;;;;;;;39.15;18.83;;;17.50;99.90;;;;;;5270591;28;20050;-80
2022/05/30 04:24:17;;;;;;;33.90;19.13;;;17.40;99.90;;;;;;5270661;28;20028;-80
2022/05/30 04:26:48;;;;;;;35.67;22.35;;;17.40;99.90;;;;;;5252487;28;20032;-79
2022/05/30 04:29:18;;;;;;;35.55;21.88;;;17.70;99.90;;;;;;5271914;28;20475;-80
2022/05/30 04:31:49;;;;;;;36.50;21.42;;;17.90;99.90;;;;;;5281316;28;20032;-80
2022/05/30 04:34:20;;;;;;;37.30;22.77;;;18.10;99.90;;;;;;5273216;28;20027;-80
2022/05/30 04:36:51;;;;;;;35.80;21.13;;;18.20;99.90;;;;;;5291470;28;20076;-78
2022/05/30 04:39:22;;;;;;;47.42;25.50;;;18.20;99.90;;;;;;5290745;28;20487;-80
2022/05/30 04:41:52;;;;;;;37.55;21.58;;;18.10;99.90;;;;;;5291325;28;20066;-79
2022/05/30 04:44:23;;;;;;;34.75;21.70;;;18.00;99.90;;;;;;5291143;28;20103;-79
2022/05/30 04:46:57;;;;;;;39.40;24.35;;;18.10;99.90;;;;;;5291242;28;20027;-80
2022/05/30 04:49:28;;;;;;;32.30;23.55;;;18.30;99.90;;;;;;5291230;28;20015;-79
2022/05/30 04:51:59;;;;;;;41.28;22.50;;;18.60;99.90;;;;;;5291585;28;20028;-79
2022/05/30 04:54:30;;;;;;;39.83;23.48;;;18.80;99.90;;;;;;5291304;28;20034;-78
2022/05/30 04:57:01;;;;;;;36.55;19.27;;;18.90;99.90;;;;;;5291791;28;20020;-79
2022/05/30 04:59:32;;;;;;;37.80;24.40;;;18.80;99.90;;;;;;5273301;28;20036;-79
2022/05/30 05:02:03;;;;;;;36.45;18.85;;;18.80;99.90;;;;;;5291876;28;20103;-79
2022/05/30 05:04:34;;;;;;;30.00;16.50;;;19.00;99.90;;;;;;5291561;28;20023;-79
2022/05/30 05:07:07;;;;;;;28.83;15.27;;;19.50;99.90;;;;;;5291883;28;20016;-79
2022/05/30 05:09:51;;;;;;;34.85;16.58;;;19.70;99.90;;;;;;5291102;28;20036;-80
2022/05/30 05:12:22;;;;;;;35.97;16.35;;;19.50;99.90;;;;;;5290923;28;20073;-79
2022/05/30 05:14:53;;;;;;;39.42;17.40;;;19.50;99.90;;;;;;5291388;28;20398;-80
2022/05/30 05:17:23;;;;;;;29.80;16.15;;;19.40;99.90;;;;;;5291213;28;20178;-80
2022/05/30 05:19:54;;;;;;;28.50;15.40;;;19.50;99.90;;;;;;5291601;28;20475;-79
2022/05/30 05:22:25;;;;;;;29.33;14.20;;;19.70;99.90;;;;;;5291123;28;20160;-79
2022/05/30 05:24:56;;;;;;;26.27;13.77;;;20.20;99.90;;;;;;5272785;28;20391;-80
2022/05/30 05:27:26;;;;;;;32.88;14.10;;;20.50;99.90;;;;;;5290914;28;20028;-80
2022/05/30 05:29:57;;;;;;;33.55;13.27;;;21.10;99.90;;;;;;5290384;28;20031;-80
2022/05/30 05:32:28;;;;;;;32.03;12.23;;;21.30;99.90;;;;;;5290462;28;20383;-79
2022/05/30 05:34:59;;;;;;;26.95;10.90;;;21.60;99.90;;;;;;5290527;28;20070;-80
2022/05/30 05:37:32;;;;;;;29.27;12.93;;;22.00;99.90;;;;;;5290175;28;20038;-80
2022/05/30 05:40:03;;;;;;;26.60;12.75;;;22.00;99.90;;;;;;5289724;28;20027;-79
2022/05/30 05:42:34;;;;;;;31.50;11.68;;;22.10;99.90;;;;;;5290326;28;20099;-79
2022/05/30 05:45:05;;;;;;;30.20;10.70;;;22.20;99.90;;;;;;5290139;28;20152;-80
2022/05/30 05:47:36;;;;;;;26.13;11.85;;;22.30;99.90;;;;;;5290187;28;20031;-80
2022/05/30 05:50:10;;;;;;;21.65;9.73;;;22.40;99.90;;;;;;5289457;28;20024;-80
2022/05/30 05:52:40;;;;;;;21.83;10.55;;;22.50;99.90;;;;;;5290030;28;20038;-80
2022/05/30 05:55:11;;;;;;;23.92;9.68;;;22.70;99.90;;;;;;5290077;28;20020;-80
2022/05/30 05:57:42;;;;;;;26.10;8.63;;;23.10;99.90;;;;;;5290196;28;20037;-80
2022/05/30 06:00:14;;;;;;;20.70;8.23;;;23.30;99.90;;;;;;5289678;28;20069;-80
2022/05/30 06:02:45;;;;;;;19.92;7.65;;;23.50;99.90;;;;;;5290015;28;20050;-79
2022/05/30 06:05:16;;;;;;;23.25;7.78;;;23.50;99.90;;;;;;5289828;28;20024;-80
2022/05/30 06:07:46;;;;;;;24.55;7.53;;;23.70;99.90;;;;;;5289921;28;20490;-80
2022/05/30 06:10:18;;;;;;;20.70;7.75;;;23.80;99.90;;;;;;5289944;28;20382;-80
2022/05/30 06:12:48;;;;;;;20.27;7.57;;;23.80;99.90;;;;;;5289816;28;20027;-78
2022/05/30 06:15:20;;;;;;;20.70;7.38;;;24.00;99.90;;;;;;5289769;28;20023;-78
2022/05/30 06:17:51;;;;;;;20.80;7.28;;;24.10;99.90;;;;;;5289902;28;20019;-81
2022/05/30 06:20:21;;;;;;;24.23;7.25;;;24.20;99.90;;;;;;5287885;28;20371;-82
2022/05/30 06:22:52;;;;;;;23.85;6.43;;;24.30;99.90;;;;;;5285582;28;20464;-82
2022/05/30 06:25:23;;;;;;;16.20;6.63;;;24.30;99.90;;;;;;5269068;28;20023;-80
2022/05/30 06:27:54;;;;;;;19.48;5.32;;;24.60;99.90;;;;;;5269129;28;20375;-80
2022/05/30 06:30:24;;;;;;;20.88;5.70;;;24.60;99.90;;;;;;5269276;28;20079;-79
2022/05/30 06:32:55;;;;;;;23.10;5.53;;;25.00;99.90;;;;;;5272963;28;20044;-81
2022/05/30 06:35:26;;;;;;;22.45;5.72;;;24.80;99.90;;;;;;5271892;28;20080;-81
2022/05/30 06:37:57;;;;;;;27.90;6.25;;;24.80;99.90;;;;;;5280022;28;20024;-81
2022/05/30 06:40:28;;;;;;;23.35;5.68;;;25.20;99.90;;;;;;5289974;28;20437;-80
2022/05/30 06:42:58;;;;;;;22.85;6.07;;;25.30;99.90;;;;;;5289995;28;20019;-81
2022/05/30 06:45:33;;;;;;;22.67;5.65;;;25.30;99.90;;;;;;5290174;28;20023;-81
2022/05/30 06:48:04;;;;;;;23.38;5.25;;;25.40;99.90;;;;;;5290037;28;20035;-80
2022/05/30 06:50:37;;;;;;;22.02;4.45;;;25.50;99.90;;;;;;5290003;28;20026;-80
2022/05/30 06:53:07;;;;;;;19.05;4.90;;;25.60;99.90;;;;;;5289786;28;20039;-80
2022/05/30 06:55:38;;;;;;;20.85;4.85;;;25.70;99.90;;;;;;5289888;28;20459;-80
2022/05/30 06:58:12;;;;;;;30.20;5.57;;;25.80;99.90;;;;;;5289379;28;20352;-81
2022/05/30 07:00:47;;;;;;;18.50;4.22;;;25.70;99.90;;;;;;5289695;28;20410;-81
2022/05/30 07:03:18;;;;;;;18.65;4.85;;;25.90;99.90;;;;;;5293900;28;20031;-81
2022/05/30 07:05:49;;;;;;;18.50;4.97;;;25.90;99.90;;;;;;5294127;28;20023;-81
2022/05/30 07:08:23;;;;;;;20.33;4.75;;;26.10;99.90;;;;;;5294073;28;20451;-82
2022/05/30 07:10:54;;;;;;;26.83;4.43;;;26.10;99.90;;;;;;5293686;28;20043;-81
2022/05/30 07:13:25;;;;;;;19.77;5.40;;;26.20;99.90;;;;;;5293701;28;20035;-81
2022/05/30 07:15:57;;;;;;;27.35;5.35;;;26.30;99.90;;;;;;5293677;28;20024;-80
2022/05/30 07:18:27;;;;;;;16.50;5.55;;;26.20;99.90;;;;;;5293545;28;20106;-81
2022/05/30 07:21:01;;;;;;;25.55;5.57;;;26.10;99.90;;;;;;5292927;28;20554;-80
2022/05/30 07:23:34;;;;;;;17.48;5.00;;;25.90;99.90;;;;;;5293615;28;20016;-80
2022/05/30 07:26:08;;;;;;;27.50;5.57;;;26.10;99.90;;;;;;5292540;28;20028;-80
2022/05/30 07:28:39;;;;;;;20.23;5.30;;;26.30;99.90;;;;;;5293100;28;20447;-80
2022/05/30 07:31:13;;;;;;;26.15;6.30;;;26.00;99.90;;;;;;5293226;28;20055;-80
2022/05/30 07:33:46;;;;;;;18.38;5.80;;;26.30;99.90;;;;;;5293344;28;20047;-79
2022/05/30 07:36:24;;;;;;;16.63;5.20;;;26.80;99.90;;;;;;5293352;28;20498;-78
2022/05/30 07:38:55;;;;;;;23.67;5.47;;;26.40;99.90;;;;;;5293200;28;20024;-80
2022/05/30 07:41:30;;;;;;;20.63;6.13;;;26.30;99.90;;;;;;5293309;28;20026;-80
2022/05/30 07:44:01;;;;;;;25.70;6.15;;;26.40;99.90;;;;;;5292968;28;20031;-77
2022/05/30 07:46:31;;;;;;;21.40;5.78;;;26.90;99.90;;;;;;5293114;28;20043;-80
2022/05/30 07:49:03;;;;;;;22.55;5.53;;;26.60;99.90;;;;;;5293026;28;20479;-79
2022/05/30 07:51:34;;;;;;;26.63;6.72;;;26.80;99.90;;;;;;5292848;28;20023;-80
2022/05/30 07:54:05;;;;;;;23.85;6.38;;;26.70;99.90;;;;;;5292892;28;20035;-79
2022/05/30 07:56:36;;;;;;;28.85;6.93;;;26.90;99.90;;;;;;5293006;28;20031;-80
2022/05/30 07:59:07;;;;;;;28.60;5.80;;;26.60;99.90;;;;;;5292805;28;20031;-80
2022/05/30 08:01:38;;;;;;;22.75;6.05;;;26.60;99.90;;;;;;5292493;28;20044;-80
2022/05/30 08:04:13;;;;;;;20.70;5.30;;;26.60;99.90;;;;;;5274271;28;20035;-80
2022/05/30 08:06:44;;;;;;;26.10;4.75;;;26.80;99.90;;;;;;5292765;28;20100;-81
2022/05/30 08:09:14;;;;;;;19.33;5.25;;;27.40;99.90;;;;;;5292633;28;20073;-76
2022/05/30 08:11:45;;;;;;;21.20;5.90;;;27.00;99.90;;;;;;5292443;28;20024;-79
2022/05/30 08:14:16;;;;;;;20.30;5.47;;;27.00;99.90;;;;;;5291612;28;20106;-80
2022/05/30 08:16:47;;;;;;;26.52;5.50;;;27.20;99.90;;;;;;5292314;28;20464;-80
2022/05/30 08:19:18;;;;;;;18.15;5.45;;;27.00;99.90;;;;;;5292281;28;20024;-80
2022/05/30 08:21:48;;;;;;;20.05;5.65;;;26.60;99.90;;;;;;5292281;28;20145;-80
2022/05/30 08:24:20;;;;;;;19.40;4.88;;;27.20;99.90;;;;;;5292313;28;20460;-80
2022/05/30 08:26:51;;;;;;;17.25;4.40;;;27.10;99.90;;;;;;5274166;28;20027;-80
2022/05/30 08:29:21;;;;;;;16.00;4.28;;;26.60;99.90;;;;;;5292144;28;20028;-80
2022/05/30 08:31:52;;;;;;;22.90;4.75;;;26.60;99.90;;;;;;5273830;28;20040;-81
2022/05/30 08:34:23;;;;;;;19.13;4.35;;;26.80;99.90;;;;;;5292281;28;20031;-80
2022/05/30 08:36:54;;;;;;;17.30;4.18;;;26.90;99.90;;;;;;5292131;28;20459;-81
2022/05/30 08:42:14;;;;;;;13.73;3.80;;;27.10;99.90;;;;;;5292280;28;20172;-81
2022/05/30 08:44:45;;;;;;;20.75;4.80;;;27.30;99.90;;;;;;5260806;28;20435;-80
2022/05/30 08:47:29;;;;;;;17.00;3.75;;;27.00;99.90;;;;;;5268933;28;20111;-80
2022/05/30 08:50:10;;;;;;;21.95;3.50;;;27.00;99.90;;;;;;5269323;28;20024;-80
2022/05/30 08:52:59;;;;;;;25.35;5.05;;;27.40;99.90;;;;;;5269750;28;20031;-80
2022/05/30 08:55:38;;;;;;;19.83;3.90;;;27.20;99.90;;;;;;5270163;28;20107;-81
2022/05/30 08:58:15;;;;;;;19.73;3.97;;;27.10;99.90;;;;;;5270213;28;20028;-76
2022/05/30 09:00:53;;;;;;;13.68;3.65;;;27.50;99.90;;;;;;5269671;28;20446;-78
2022/05/30 09:03:30;;;;;;;19.55;3.80;;;28.30;99.90;;;;;;5269944;28;20024;-77
2022/05/30 09:06:09;;;;;;;19.52;4.13;;;27.90;99.90;;;;;;5268545;28;20127;-81
2022/05/30 09:08:50;;;;;;;17.33;3.92;;;27.50;99.90;;;;;;5269487;28;20529;-81
2022/05/30 09:11:37;;;;;;;15.18;4.13;;;28.00;99.90;;;;;;5269357;28;20055;-81
2022/05/30 09:14:41;;;;;;;14.27;3.05;;;27.80;99.90;;;;;;5269630;28;20106;-81
2022/05/30 09:17:18;;;;;;;19.88;3.78;;;28.40;99.90;;;;;;5250457;28;20035;-81
2022/05/30 09:19:49;;;;;;;14.98;3.95;;;27.90;99.90;;;;;;5269671;28;20043;-76
2022/05/30 09:22:21;;;;;;;15.90;4.05;;;27.80;99.90;;;;;;5269570;28;20023;-81
2022/05/30 09:27:41;;;;;;;22.85;4.22;;;28.30;99.90;;;;;;5269947;28;20114;-82
2022/05/30 09:30:16;;;;;;;17.42;4.30;;;28.50;99.90;;;;;;5269363;28;20103;-80
2022/05/30 09:33:08;;;;;;;25.38;4.18;;;27.90;99.90;;;;;;5269474;28;20484;-81
2022/05/30 09:35:41;;;;;;;16.63;4.22;;;28.00;99.90;;;;;;5269556;28;20016;-78
2022/05/30 09:38:19;;;;;;;15.40;4.22;;;27.70;99.90;;;;;;5269439;28;20016;-79
2022/05/30 09:40:54;;;;;;;19.83;4.40;;;28.00;99.90;;;;;;5269401;28;20054;-76
2022/05/30 09:43:39;;;;;;;21.23;4.25;;;28.30;99.90;;;;;;5269208;28;20027;-81
2022/05/30 09:46:23;;;;;;;17.20;4.20;;;28.20;99.90;;;;;;5269095;28;20032;-77
2022/05/30 09:49:04;;;;;;;14.98;3.38;;;28.10;99.90;;;;;;5269175;28;20027;-81
2022/05/30 09:51:36;;;;;;;13.80;3.92;;;27.60;99.90;;;;;;5269535;28;20024;-81
2022/05/30 09:54:28;;;;;;;16.42;3.97;;;28.00;99.90;;;;;;5269060;28;20480;-77
2022/05/30 09:57:04;;;;;;;17.05;3.80;;;28.40;99.90;;;;;;5269092;28;20024;-79
2022/05/30 09:59:37;;;;;;;17.45;3.90;;;28.40;99.90;;;;;;5268725;28;20042;-77
2022/05/30 10:02:33;;;;;;;19.23;3.88;;;29.50;99.90;;;;;;5250883;28;20131;-80
2022/05/30 10:05:22;;;;;;;12.02;3.55;;;28.40;99.90;;;;;;5268766;28;20048;-77
2022/05/30 10:07:59;;;;;;;15.85;3.72;;;28.20;99.90;;;;;;5268965;28;20115;-82
2022/05/30 10:10:51;;;;;;;19.02;4.32;;;28.00;99.90;;;;;;5268919;28;20031;-82
2022/05/30 10:13:42;;;;;;;15.80;3.97;;;28.30;99.90;;;;;;5268717;28;20097;-82
2022/05/30 10:16:26;;;;;;;16.13;4.05;;;28.90;99.90;;;;;;5268874;28;20026;-82
2022/05/30 10:19:02;;;;;;;12.60;3.78;;;28.70;99.90;;;;;;5268932;28;20024;-82
2022/05/30 10:28:49;;;;;;;18.90;4.20;;;29.30;99.90;;;;;;5276158;28;20476;-84
2022/05/30 10:31:39;;;;;;;15.40;3.28;;;29.90;99.90;;;;;;5258812;28;20135;-83
2022/05/30 10:34:34;;;;;;;20.45;4.07;;;28.80;99.90;;;;;;5290047;28;20039;-84
2022/05/30 10:37:29;;;;;;;17.88;4.40;;;28.80;99.90;;;;;;5284471;28;20034;-83
2022/05/30 10:40:45;;;;;;;15.82;3.90;;;28.50;99.90;;;;;;5273032;28;20077;-83
2022/05/30 10:43:24;;;;;;;16.85;4.00;;;28.70;99.90;;;;;;5239413;28;20111;-81
2022/05/30 10:46:08;;;;;;;18.25;3.92;;;28.80;99.90;;;;;;5273152;28;20028;-83
2022/05/30 10:48:44;;;;;;;16.48;3.47;;;29.20;99.90;;;;;;5280711;28;20043;-84
2022/05/30 10:51:22;;;;;;;13.15;3.38;;;29.80;99.90;;;;;;5293936;28;20023;-84
2022/05/30 10:54:25;;;;;;;20.20;3.53;;;30.10;99.90;;;;;;5293887;28;20040;-84
2022/05/30 10:57:24;;;;;;;21.83;3.22;;;29.20;99.90;;;;;;5280393;28;20054;-84
2022/05/30 11:00:06;;;;;;;12.18;2.92;;;30.40;99.90;;;;;;5284703;28;20491;-83
2022/05/30 11:02:37;;;;;;;17.95;4.05;;;29.60;99.90;;;;;;5272934;28;20379;-82
2022/05/30 11:05:19;;;;;;;17.23;3.90;;;29.40;99.90;;;;;;5272716;28;20024;-84
2022/05/30 11:08:12;;;;;;;11.90;3.88;;;29.20;99.90;;;;;;5272553;28;20375;-85
2022/05/30 11:10:51;;;;;;;14.40;3.85;;;29.80;99.90;;;;;;5272640;28;20103;-84
2022/05/30 11:13:51;;;;;;;17.00;4.68;;;29.90;99.90;;;;;;5272610;28;20028;-84
2022/05/30 11:16:43;;;;;;;11.88;3.25;;;29.80;99.90;;;;;;5272495;28;20047;-83
2022/05/30 11:19:32;;;;;;;15.05;3.55;;;29.60;99.90;;;;;;5272721;28;20024;-83
2022/05/30 11:22:12;;;;;;;17.52;2.97;;;30.30;99.90;;;;;;5272467;28;20423;-83
2022/05/30 11:24:49;;;;;;;18.77;3.67;;;30.60;99.90;;;;;;5254036;28;20426;-83
2022/05/30 11:27:39;;;;;;;19.50;3.58;;;30.40;99.90;;;;;;5272287;28;20059;-83
2022/05/30 11:30:38;;;;;;;14.40;3.15;;;29.40;99.90;;;;;;5272392;28;20020;-81
2022/05/30 11:33:12;;;;;;;22.00;3.60;;;29.40;99.90;;;;;;5253995;28;20040;-84
2022/05/30 11:35:47;;;;;;;13.93;3.42;;;29.80;99.90;;;;;;5272181;28;20257;-84
2022/05/30 11:38:39;;;;;;;13.25;2.70;;;29.40;99.90;;;;;;5272356;28;20411;-84
2022/05/30 11:41:43;;;;;;;9.63;2.75;;;28.70;99.90;;;;;;5271929;28;20047;-84
2022/05/30 11:44:32;;;;;;;14.98;3.60;;;29.30;99.90;;;;;;5271811;28;20028;-83
2022/05/30 11:47:13;;;;;;;16.05;4.88;;;29.40;99.90;;;;;;5271798;28;20148;-83
2022/05/30 11:50:22;;;;;;;16.85;4.80;;;29.30;99.90;;;;;;5271227;28;20024;-85
2022/05/30 11:53:13;;;;;;;19.80;5.33;;;28.90;99.90;;;;;;5271996;28;20093;-83
2022/05/30 11:56:07;;;;;;;20.60;5.88;;;28.90;99.90;;;;;;5271811;28;20257;-84
2022/05/30 11:58:46;;;;;;;19.63;5.13;;;28.40;99.90;;;;;;5253955;28;20089;-83
2022/05/30 12:01:21;;;;;;;19.30;5.18;;;28.50;99.90;;;;;;5271465;28;20052;-84
2022/05/30 12:04:04;;;;;;;14.57;4.93;;;28.50;99.90;;;;;;5271615;28;20044;-84
2022/05/30 12:07:16;;;;;;;13.80;4.22;;;28.30;99.90;;;;;;5271635;28;20101;-84
2022/05/30 12:10:21;;;;;;;15.73;4.90;;;28.30;99.90;;;;;;5270429;28;20157;-84
2022/05/30 12:13:15;;;;;;;12.13;4.53;;;28.60;99.90;;;;;;5271323;28;20044;-83
2022/05/30 12:16:05;;;;;;;15.40;4.75;;;27.40;99.90;;;;;;5271409;28;20024;-82
2022/05/30 12:24:56;;;;;;;17.52;5.40;;;26.40;99.90;;;;;;5271076;28;20065;-82
2022/05/30 12:27:36;;;;;;;18.10;5.90;;;26.20;99.90;;;;;;5253070;28;20076;-82
2022/05/30 12:30:34;;;;;;;19.35;5.82;;;25.70;99.90;;;;;;5252882;28;20020;-81
2022/05/30 12:33:34;;;;;;;18.65;6.40;;;25.60;99.90;;;;;;5270864;28;20048;-80
2022/05/30 12:36:10;;;;;;;15.95;6.10;;;25.60;99.90;;;;;;5249418;28;20036;-82
2022/05/30 12:38:59;;;;;;;18.17;6.22;;;25.40;99.90;;;;;;5252765;28;20032;-79
2022/05/30 12:41:31;;;;;;;28.30;6.85;;;25.00;99.90;;;;;;5270911;28;20462;-79
2022/05/30 12:44:03;;;;;;;34.33;9.23;;;24.20;99.90;;;;;;5270637;28;20051;-80
2022/05/30 12:46:52;;;;;;;23.50;9.10;;;24.30;99.90;;;;;;5270819;28;20032;-81
2022/05/30 12:49:33;;;;;;;13.18;7.78;;;23.80;99.90;;;;;;5252728;28;20456;-81
2022/05/30 12:52:17;;;;;;;20.48;8.40;;;23.60;99.90;;;;;;5270748;28;20036;-80
2022/05/30 12:54:57;;;;;;;20.27;9.32;;;23.50;99.90;;;;;;5270824;28;20039;-80
2022/05/30 12:57:35;;;;;;;22.13;8.82;;;23.40;99.90;;;;;;5252432;28;20385;-79
2022/05/30 13:00:16;;;;;;;17.75;9.23;;;24.50;99.90;;;;;;5270739;28;20063;-79
2022/05/30 13:03:03;;;;;;;17.05;8.68;;;25.40;99.90;;;;;;5271225;28;20400;-79
2022/05/30 13:05:40;;;;;;;13.73;8.43;;;24.80;99.90;;;;;;5270722;28;20396;-79
2022/05/30 13:08:48;;;;;;;18.45;7.78;;;24.60;99.90;;;;;;5270642;28;20376;-78
2022/05/30 13:11:41;;;;;;;13.55;7.63;;;24.30;99.90;;;;;;5270588;28;20012;-78
2022/05/30 13:14:19;;;;;;;17.30;8.77;;;25.00;99.90;;;;;;5270412;28;20028;-78
2022/05/30 13:16:52;;;;;;;18.90;7.80;;;25.00;99.90;;;;;;5270023;28;20056;-79
2022/05/30 13:19:23;;;;;;;14.73;7.65;;;25.60;99.90;;;;;;5270119;28;20028;-78
2022/05/30 13:21:55;;;;;;;13.52;6.97;;;25.00;99.90;;;;;;5269909;28;20472;-77
2022/05/30 13:24:29;;;;;;;13.95;7.05;;;25.90;99.90;;;;;;5269783;28;20051;-79
2022/05/30 13:27:02;;;;;;;9.35;5.88;;;24.90;99.90;;;;;;5270072;28;20483;-78
2022/05/30 13:29:41;;;;;;;18.08;8.23;;;25.20;99.90;;;;;;5269839;28;20077;-79
2022/05/30 13:32:15;;;;;;;14.10;6.32;;;25.50;99.90;;;;;;5269841;28;20028;-79
2022/05/30 13:34:49;;;;;;;13.65;6.70;;;25.40;99.90;;;;;;5269689;28;20040;-79
2022/05/30 13:37:29;;;;;;;11.45;6.03;;;25.50;99.90;;;;;;5269187;28;20016;-78
2022/05/30 13:40:04;;;;;;;12.68;5.75;;;24.80;99.90;;;;;;5269216;28;20039;-79
2022/05/30 13:42:50;;;;;;;18.20;6.95;;;24.50;99.90;;;;;;5269152;28;20028;-77
2022/05/30 13:45:26;;;;;;;21.60;7.38;;;23.90;99.90;;;;;;5268990;28;20056;-76